createdAt,value
2022-12-16T00:01:27.929Z,5.00
2022-12-16T00:03:57.655Z,4.53
2022-12-16T00:06:27.150Z,4.20
2022-12-16T00:09:03.241Z,4.40
2022-12-16T00:11:32.666Z,4.07
2022-12-16T00:14:06.429Z,4.60
2022-12-16T00:16:35.240Z,4.37
2022-12-16T00:19:06.569Z,5.30
2022-12-16T00:21:35.280Z,3.87
2022-12-16T00:24:05.962Z,4.50
2022-12-16T00:26:34.733Z,4.07
2022-12-16T00:29:27.783Z,3.80
2022-12-16T00:32:00.426Z,4.57
2022-12-16T00:34:33.622Z,4.57
2022-12-16T00:37:06.742Z,3.40
2022-12-16T00:39:46.749Z,4.20
2022-12-16T00:42:35.956Z,3.67
2022-12-16T00:48:43.244Z,3.90
2022-12-16T00:51:16.328Z,3.73
2022-12-16T00:53:51.526Z,3.20
2022-12-16T00:59:35.172Z,4.73
2022-12-16T01:02:17.879Z,4.73
2022-12-16T01:04:58.570Z,3.60
2022-12-16T01:08:02.321Z,4.90
2022-12-16T01:11:13.077Z,3.90
2022-12-16T02:43:14.950Z,5.77
2022-12-16T02:49:07.421Z,4.37
2022-12-16T02:51:38.411Z,6.63
2022-12-16T02:54:27.059Z,4.70
2022-12-16T02:57:07.911Z,6.40
2022-12-16T02:59:43.699Z,4.60
2022-12-16T03:02:14.375Z,5.70
2022-12-16T03:04:45.256Z,3.93
2022-12-16T03:07:15.814Z,5.53
2022-12-16T03:09:45.758Z,5.23
2022-12-16T03:12:15.622Z,5.33
2022-12-16T03:14:47.305Z,5.83
2022-12-16T03:17:16.328Z,5.97
2022-12-16T03:19:46.236Z,4.87
2022-12-16T03:22:16.496Z,6.40
2022-12-16T03:24:45.514Z,5.43
2022-12-16T03:27:16.967Z,4.00
2022-12-16T03:29:49.123Z,5.90
2022-12-16T03:32:20.500Z,5.53
2022-12-16T03:34:53.584Z,5.53
2022-12-16T03:37:32.694Z,6.63
2022-12-16T03:40:03.615Z,6.73
2022-12-16T03:42:32.124Z,4.80
2022-12-16T03:45:01.976Z,7.10
2022-12-16T03:47:31.419Z,5.73
2022-12-16T03:50:00.114Z,7.03
2022-12-16T03:52:28.647Z,5.80
2022-12-16T03:54:57.432Z,6.60
2022-12-16T03:57:26.033Z,6.43
2022-12-16T03:59:54.941Z,5.70
2022-12-16T04:02:25.458Z,5.67
2022-12-16T04:04:54.104Z,7.10
2022-12-16T04:07:24.992Z,5.93
2022-12-16T04:09:54.908Z,7.70
2022-12-16T04:12:40.817Z,6.53
2022-12-16T04:15:27.299Z,6.37
2022-12-16T04:18:15.012Z,8.27
2022-12-16T04:21:04.493Z,8.17
2022-12-16T04:23:51.824Z,7.77
2022-12-16T04:26:20.648Z,6.83
2022-12-16T04:28:49.390Z,8.27
2022-12-16T04:31:25.441Z,8.40
2022-12-16T04:34:14.363Z,6.50
2022-12-16T04:37:01.010Z,6.57
2022-12-16T04:39:47.679Z,7.80
2022-12-16T04:42:44.520Z,6.10
2022-12-16T04:45:34.593Z,5.60
2022-12-16T04:48:25.097Z,7.07
2022-12-16T04:51:19.786Z,8.03
2022-12-16T04:57:27.209Z,8.47
2022-12-16T05:04:16.270Z,6.50
2022-12-16T05:07:41.391Z,7.50
2022-12-16T05:15:28.135Z,8.10
2022-12-16T05:34:54.709Z,8.03
2022-12-16T05:44:49.873Z,7.80
2022-12-16T05:48:23.754Z,6.30
2022-12-16T05:54:31.828Z,10.37
2022-12-16T05:57:32.566Z,8.00
2022-12-16T06:04:40.234Z,7.50
2022-12-16T06:08:11.130Z,10.47
2022-12-16T06:10:51.543Z,9.13
2022-12-16T06:21:09.818Z,7.27
2022-12-16T06:23:44.228Z,11.30
2022-12-16T06:31:03.334Z,9.20
2022-12-16T06:36:56.963Z,7.97
2022-12-16T06:40:06.994Z,10.33
2022-12-16T06:46:17.809Z,8.13
2022-12-16T06:50:18.602Z,9.87
2022-12-16T06:56:08.253Z,8.30
2022-12-16T06:59:14.936Z,9.30
2022-12-16T07:05:34.956Z,9.80
2022-12-16T07:08:36.354Z,9.97
2022-12-16T07:11:41.946Z,7.57
2022-12-16T07:14:32.323Z,9.60
2022-12-16T07:17:35.435Z,10.33
2022-12-16T07:20:21.986Z,9.57
2022-12-16T07:23:27.867Z,9.03
2022-12-16T07:26:35.993Z,11.60
2022-12-16T07:29:30.364Z,8.40
2022-12-16T07:32:38.635Z,8.83
2022-12-16T07:35:46.103Z,10.50
2022-12-16T07:38:46.110Z,10.87
2022-12-16T07:41:36.432Z,10.53
2022-12-16T07:44:43.234Z,10.30
2022-12-16T07:47:31.415Z,8.20
2022-12-16T07:50:22.357Z,12.40
2022-12-16T07:53:29.547Z,10.13
2022-12-16T07:56:55.200Z,9.17
2022-12-16T07:59:36.528Z,10.07
2022-12-16T08:02:30.256Z,9.53
2022-12-16T08:05:46.321Z,7.97
2022-12-16T08:08:42.341Z,8.50
2022-12-16T08:11:34.886Z,7.83
2022-12-16T08:14:25.290Z,8.27
2022-12-16T08:17:13.241Z,9.30
2022-12-16T08:20:01.742Z,8.93
2022-12-16T08:23:11.666Z,8.00
2022-12-16T08:26:09.196Z,8.60
2022-12-16T08:32:22.250Z,9.90
2022-12-16T08:35:09.758Z,9.17
2022-12-16T08:38:14.088Z,8.80
2022-12-16T08:41:02.095Z,9.57
2022-12-16T08:43:50.233Z,7.93
2022-12-16T08:46:39.482Z,9.60
2022-12-16T08:49:25.783Z,7.30
2022-12-16T08:52:14.429Z,8.53
2022-12-16T08:55:01.696Z,8.83
2022-12-16T08:57:47.625Z,8.90
2022-12-16T09:00:34.011Z,10.70
2022-12-16T09:03:21.695Z,9.10
2022-12-16T09:06:21.176Z,10.10
2022-12-16T09:09:10.042Z,7.83
2022-12-16T09:11:56.026Z,6.83
2022-12-16T09:14:51.889Z,8.87
2022-12-16T09:17:42.558Z,9.73
2022-12-16T09:20:34.726Z,9.53
2022-12-16T09:23:24.227Z,8.47
2022-12-16T09:26:10.202Z,8.40
2022-12-16T09:28:56.753Z,8.63
2022-12-16T09:31:42.981Z,9.33
2022-12-16T09:34:30.342Z,8.23
2022-12-16T09:37:20.371Z,8.07
2022-12-16T09:40:11.836Z,7.87
2022-12-16T09:43:06.175Z,8.53
2022-12-16T09:45:59.814Z,9.83
2022-12-16T09:48:52.991Z,9.17
2022-12-16T09:51:39.486Z,6.67
2022-12-16T09:54:31.961Z,8.97
2022-12-16T10:00:14.745Z,7.83
2022-12-16T10:03:09.002Z,7.53
2022-12-16T10:06:05.767Z,10.37
2022-12-16T10:08:57.676Z,9.03
2022-12-16T10:12:02.102Z,9.60
2022-12-16T10:14:51.724Z,7.50
2022-12-16T10:17:41.641Z,8.73
2022-12-16T10:20:33.360Z,10.90
2022-12-16T10:23:24.085Z,9.33
2022-12-16T10:26:14.166Z,8.90
2022-12-16T10:29:21.281Z,8.60
2022-12-16T10:32:20.863Z,8.57
2022-12-16T10:35:10.348Z,9.00
2022-12-16T10:38:01.386Z,8.67
2022-12-16T10:40:52.527Z,9.90
2022-12-16T10:43:43.149Z,8.73
2022-12-16T10:46:32.519Z,8.03
2022-12-16T10:49:24.608Z,8.43
2022-12-16T10:52:13.233Z,9.80
2022-12-16T10:55:01.233Z,8.87
2022-12-16T10:57:51.704Z,8.03
2022-12-16T11:00:39.373Z,7.97
2022-12-16T11:03:44.725Z,9.60
2022-12-16T11:06:34.542Z,8.10
2022-12-16T11:09:33.885Z,7.70
2022-12-16T11:12:32.792Z,6.80
2022-12-16T11:15:29.039Z,9.23
2022-12-16T11:18:21.369Z,10.37
2022-12-16T11:21:22.473Z,7.97
2022-12-16T11:24:24.046Z,8.97
2022-12-16T11:27:13.375Z,6.60
2022-12-16T11:30:09.075Z,9.40
2022-12-16T11:32:56.320Z,7.70
2022-12-16T11:35:45.607Z,10.03
2022-12-16T11:38:36.299Z,10.60
2022-12-16T11:41:24.620Z,7.17
2022-12-16T11:44:11.541Z,8.37
2022-12-16T11:46:56.117Z,8.20
2022-12-16T11:49:46.489Z,8.20
2022-12-16T11:52:37.472Z,7.43
2022-12-16T11:55:48.130Z,8.13
2022-12-16T11:58:39.893Z,8.30
2022-12-16T12:01:31.586Z,8.83
2022-12-16T12:04:19.397Z,7.53
2022-12-16T12:07:16.706Z,8.70
2022-12-16T12:10:14.723Z,7.70
2022-12-16T12:13:11.117Z,8.07
2022-12-16T12:16:22.317Z,8.77
2022-12-16T12:19:35.725Z,8.00
2022-12-16T12:22:31.361Z,8.73
2022-12-16T12:25:47.963Z,7.70
2022-12-16T12:32:05.108Z,9.33
2022-12-16T12:35:07.203Z,8.83
2022-12-16T12:38:37.858Z,7.03
2022-12-16T12:41:33.922Z,9.17
2022-12-16T12:45:02.047Z,8.20
2022-12-16T12:48:07.270Z,9.30
2022-12-16T12:51:08.174Z,8.43
2022-12-16T12:54:01.231Z,9.57
2022-12-16T12:56:52.082Z,7.40
2022-12-16T13:00:02.259Z,7.07
2022-12-16T13:03:05.641Z,6.00
2022-12-16T13:06:11.041Z,10.93
2022-12-16T13:09:18.498Z,7.47
2022-12-16T13:12:28.691Z,7.27
2022-12-16T13:15:24.089Z,8.30
2022-12-16T13:18:30.181Z,7.40
2022-12-16T13:21:29.005Z,7.67
2022-12-16T13:24:39.743Z,8.07
2022-12-16T13:27:32.586Z,6.93
2022-12-16T13:30:46.525Z,8.40
2022-12-16T13:37:35.732Z,7.70
2022-12-16T13:40:31.736Z,7.07
2022-12-16T13:56:47.443Z,7.27
2022-12-16T14:00:26.043Z,6.13
2022-12-16T14:03:13.729Z,6.10
2022-12-16T14:06:02.617Z,7.00
2022-12-16T14:08:52.226Z,8.13
2022-12-16T14:12:08.836Z,5.83
2022-12-16T14:15:02.779Z,6.70
2022-12-16T14:21:00.565Z,7.43
2022-12-16T14:24:40.518Z,6.80
2022-12-16T14:27:25.634Z,6.90
2022-12-16T14:31:26.322Z,5.00
2022-12-16T14:41:15.385Z,6.83
2022-12-16T14:44:31.936Z,5.63
2022-12-16T14:47:22.582Z,6.33
2022-12-16T14:53:50.431Z,6.17
2022-12-16T15:00:20.846Z,7.03
2022-12-16T15:03:07.826Z,6.43
2022-12-16T15:06:40.023Z,5.23
2022-12-16T15:09:44.771Z,6.90
2022-12-16T15:12:45.297Z,5.10
2022-12-16T15:19:01.264Z,6.07
2022-12-16T15:21:56.280Z,5.87
2022-12-16T15:25:42.616Z,5.50
2022-12-16T15:28:16.031Z,6.70
2022-12-16T15:31:17.238Z,5.70
2022-12-16T15:38:04.176Z,7.87
2022-12-16T15:47:39.154Z,5.80
2022-12-16T15:50:52.752Z,5.93
2022-12-16T15:54:00.264Z,6.70
2022-12-16T15:57:07.562Z,6.50
2022-12-16T16:00:13.770Z,6.87
2022-12-16T16:03:06.861Z,5.40
2022-12-16T16:06:08.654Z,5.23
2022-12-16T16:09:24.268Z,5.60
2022-12-16T16:12:44.117Z,8.00
2022-12-16T16:15:36.295Z,6.93
2022-12-16T16:19:23.667Z,7.10
2022-12-16T16:22:08.518Z,5.10
2022-12-16T16:25:11.400Z,5.77
2022-12-16T16:28:00.191Z,7.60
2022-12-16T16:31:01.182Z,5.60
2022-12-16T16:33:52.256Z,7.57
2022-12-16T16:36:53.576Z,5.80
2022-12-16T16:46:16.319Z,5.40
2022-12-16T16:49:04.960Z,6.60
2022-12-16T16:51:58.781Z,5.67
2022-12-16T16:55:09.013Z,6.10
2022-12-16T16:58:08.397Z,6.50
2022-12-16T17:01:02.137Z,7.13
2022-12-16T17:04:07.720Z,6.57
2022-12-16T17:07:06.999Z,6.90
2022-12-16T17:10:08.016Z,6.60
2022-12-16T17:12:58.541Z,5.30
2022-12-16T17:16:07.467Z,6.30
2022-12-16T17:18:57.465Z,6.10
2022-12-16T17:21:49.194Z,5.40
2022-12-16T17:24:54.971Z,5.37
2022-12-16T17:27:51.960Z,5.90
2022-12-16T17:30:47.716Z,5.83
2022-12-16T17:33:37.671Z,5.03
2022-12-16T17:36:42.958Z,6.00
2022-12-16T17:39:46.547Z,6.40
2022-12-16T17:42:44.761Z,6.40
2022-12-16T17:45:47.204Z,6.60
2022-12-16T17:48:45.659Z,5.67
2022-12-16T17:51:32.019Z,7.20
2022-12-16T17:54:26.205Z,6.90
2022-12-16T17:57:37.373Z,7.30
2022-12-16T18:00:23.889Z,6.40
2022-12-16T18:03:14.353Z,6.17
2022-12-16T18:06:05.934Z,7.67
2022-12-16T18:08:53.854Z,4.93
2022-12-16T18:11:53.732Z,6.83
2022-12-16T18:14:39.923Z,7.10
2022-12-16T18:17:30.805Z,7.67
2022-12-16T18:20:19.600Z,7.50
2022-12-16T18:23:39.705Z,6.73
2022-12-16T18:27:02.744Z,5.70
2022-12-16T18:30:01.310Z,6.90
2022-12-16T18:39:59.061Z,6.50
2022-12-16T18:43:02.502Z,5.90
2022-12-16T18:45:50.524Z,5.10
2022-12-16T18:49:30.834Z,6.70
2022-12-16T18:51:52.514Z,9.10
2022-12-16T18:54:45.913Z,7.17
2022-12-16T18:57:45.011Z,6.00
2022-12-16T19:00:31.614Z,6.40
2022-12-16T19:03:48.169Z,5.70
2022-12-16T19:08:14.279Z,5.50
2022-12-16T19:09:50.546Z,7.17
2022-12-16T19:12:40.687Z,6.90
2022-12-16T19:15:41.027Z,5.23
2022-12-16T19:18:45.550Z,6.40
2022-12-16T19:22:33.040Z,7.47
2022-12-16T19:25:43.569Z,5.93
2022-12-16T19:28:05.481Z,6.00
2022-12-16T19:30:58.637Z,5.50
2022-12-16T19:33:50.509Z,5.87
2022-12-16T19:36:46.555Z,6.13
2022-12-16T19:39:48.911Z,6.37
2022-12-16T19:42:53.451Z,6.63
2022-12-16T19:46:07.715Z,6.20
2022-12-16T19:49:00.627Z,7.13
2022-12-16T19:51:52.045Z,6.53
2022-12-16T19:54:38.411Z,6.53
2022-12-16T19:57:27.595Z,7.33
2022-12-16T20:00:19.836Z,6.67
2022-12-16T20:03:10.699Z,6.80
2022-12-16T20:05:58.324Z,7.00
2022-12-16T20:09:15.030Z,5.90
2022-12-16T20:12:15.124Z,6.73
2022-12-16T20:15:16.052Z,6.23
2022-12-16T20:18:24.153Z,7.00
2022-12-16T20:21:24.983Z,7.20
2022-12-16T20:24:16.426Z,7.87
2022-12-16T20:27:08.190Z,6.20
2022-12-16T20:29:58.851Z,6.07
2022-12-16T20:32:47.655Z,7.80
2022-12-16T20:35:40.711Z,7.40
2022-12-16T20:38:52.613Z,8.77
2022-12-16T20:41:56.186Z,9.07
2022-12-16T20:45:00.120Z,7.43
2022-12-16T20:48:01.257Z,5.60
2022-12-16T20:50:59.411Z,6.30
2022-12-16T20:53:47.025Z,6.27
2022-12-16T20:56:38.111Z,5.13
2022-12-16T20:59:28.913Z,7.53
2022-12-16T21:05:24.394Z,4.70
2022-12-16T21:08:31.463Z,7.50
2022-12-16T21:11:48.916Z,6.40
2022-12-16T21:18:10.668Z,5.57
2022-12-16T21:21:20.940Z,6.70
2022-12-16T21:24:22.920Z,9.63
2022-12-16T21:27:14.610Z,6.67
2022-12-16T21:30:15.249Z,7.20
2022-12-16T21:33:18.661Z,7.77
2022-12-16T21:36:31.340Z,7.10
2022-12-16T21:39:19.074Z,5.77
2022-12-16T21:42:10.984Z,5.13
2022-12-16T21:45:00.187Z,6.80
2022-12-16T21:47:51.903Z,6.43
2022-12-16T21:50:41.288Z,5.87
2022-12-16T21:53:33.786Z,6.60
2022-12-16T21:57:11.106Z,6.67
2022-12-16T21:59:47.535Z,6.67
2022-12-16T22:02:41.883Z,5.90
2022-12-16T22:05:31.856Z,6.80
2022-12-16T22:08:24.902Z,6.23
2022-12-16T22:11:11.077Z,5.40
2022-12-16T22:14:02.877Z,6.90
2022-12-16T22:17:12.691Z,5.47
2022-12-16T22:20:18.090Z,6.03
2022-12-16T22:23:05.495Z,5.80
2022-12-16T22:26:06.479Z,6.53
2022-12-16T22:28:54.935Z,5.60
2022-12-16T22:31:41.487Z,5.73
2022-12-16T22:34:27.771Z,6.07
2022-12-16T22:37:15.226Z,5.63
2022-12-16T22:40:01.683Z,5.30
2022-12-16T22:42:48.184Z,5.70
2022-12-16T22:45:35.047Z,6.30
2022-12-16T22:48:23.653Z,6.53
2022-12-16T22:51:11.717Z,5.90
2022-12-16T22:53:58.369Z,5.73
2022-12-16T22:56:48.734Z,5.07
2022-12-16T22:59:36.277Z,4.67
2022-12-16T23:02:24.386Z,5.63
2022-12-16T23:05:12.346Z,5.30
2022-12-16T23:08:00.384Z,6.77
2022-12-16T23:10:47.417Z,6.60
2022-12-16T23:13:34.880Z,5.77
2022-12-16T23:16:22.624Z,5.50
2022-12-16T23:19:15.701Z,6.23
2022-12-16T23:22:29.567Z,5.07
2022-12-16T23:25:15.801Z,6.50
2022-12-16T23:28:03.727Z,5.70
2022-12-16T23:30:49.951Z,5.13
2022-12-16T23:33:36.607Z,6.47
2022-12-16T23:36:31.881Z,6.80
2022-12-16T23:39:28.229Z,5.50
2022-12-16T23:42:18.387Z,4.30
2022-12-16T23:45:07.031Z,5.87
2022-12-16T23:51:28.465Z,6.70
2022-12-16T23:54:15.175Z,4.90
2022-12-16T23:57:11.267Z,5.37
